Time;durP1;ratioP1;P1;durP2;ratioP2;P2;SDS_P1;SDS_P2;PMS_P1;PMS_P2;Temp;Humidity;BMP_temperature;BMP_pressure;BME280_temperature;BME280_humidity;BME280_pressure;Samples;Min_cycle;Max_cycle;Signal;HPM_P1;HPM_P2
2021/10/06 00:00:16;;;;;;;1.17;0.90;;;;;;;14.12;93.17;95504.66;4993952;28;20641;-85
2021/10/06 00:02:43;;;;;;;1.20;1.00;;;;;;;14.21;93.31;95509.66;4994663;28;20729;-85
2021/10/06 00:05:10;;;;;;;1.40;0.90;;;;;;;14.17;92.90;95517.00;4993450;28;20226;-86
2021/10/06 00:07:37;;;;;;;1.20;0.90;;;;;;;14.09;92.33;95507.66;4993754;28;20199;-85
2021/10/06 00:10:04;;;;;;;1.03;0.93;;;;;;;14.07;92.78;95507.03;4994179;28;20208;-84
2021/10/06 00:12:30;;;;;;;0.90;0.90;;;;;;;14.08;93.07;95510.44;4994667;28;20203;-84
2021/10/06 00:14:57;;;;;;;1.20;1.10;;;;;;;14.09;92.98;95519.78;4974952;28;20196;-84
2021/10/06 00:17:23;;;;;;;1.00;0.90;;;;;;;14.12;92.18;95509.84;4974254;28;20204;-86
2021/10/06 00:19:52;;;;;;;0.93;0.90;;;;;;;14.09;91.10;95519.78;4974552;28;20490;-85
2021/10/06 00:22:19;;;;;;;4.10;1.17;;;;;;;14.10;91.44;95517.00;4974373;28;20259;-85
2021/10/06 00:24:45;;;;;;;0.90;0.90;;;;;;;14.15;91.60;95526.78;4974872;28;20234;-85
2021/10/06 00:27:12;;;;;;;2.70;1.07;;;;;;;14.18;90.78;95532.34;4974109;28;20591;-85
2021/10/06 00:29:38;;;;;;;0.90;0.90;;;;;;;14.15;89.94;95535.34;4974865;28;20323;-86
2021/10/06 00:32:06;;;;;;;1.30;1.10;;;;;;;14.12;90.18;95527.97;4974396;28;20209;-84
2021/10/06 00:34:32;;;;;;;1.10;1.00;;;;;;;14.16;89.89;95529.16;4974973;28;20207;-85
2021/10/06 00:37:00;;;;;;;1.13;1.03;;;;;;;14.25;89.80;95539.31;4978139;28;20208;-85
2021/10/06 00:39:29;;;;;;;0.80;0.80;;;;;;;14.28;89.30;95549.28;4975336;28;20220;-86
2021/10/06 00:41:56;;;;;;;1.57;0.90;;;;;;;14.27;89.03;95545.88;4974814;28;20204;-85
2021/10/06 00:44:23;;;;;;;2.80;0.90;;;;;;;14.28;89.41;95549.28;4974797;28;20593;-85
2021/10/06 00:46:50;;;;;;;0.97;0.97;;;;;;;14.19;88.90;95553.88;4973911;28;20235;-85
2021/10/06 00:49:18;;;;;;;2.37;0.90;;;;;;;14.18;89.35;95560.03;4974267;28;20228;-85
2021/10/06 00:51:44;;;;;;;1.20;0.80;;;;;;;14.12;89.88;95560.81;4974072;28;20206;-86
2021/10/06 00:54:18;;;;;;;1.53;1.00;;;;;;;14.08;89.21;95559.63;4992737;28;20216;-85
2021/10/06 00:56:45;;;;;;;0.87;0.87;;;;;;;14.11;89.26;95565.22;4994275;28;20590;-85
2021/10/06 00:59:11;;;;;;;0.90;0.90;;;;;;;14.19;89.45;95564.22;4994055;28;20238;-84
2021/10/06 01:01:37;;;;;;;1.30;1.00;;;;;;;14.14;89.38;95564.81;4993975;28;20695;-85
2021/10/06 01:04:05;;;;;;;1.07;0.90;;;;;;;14.18;89.65;95571.19;4994289;28;20235;-84
2021/10/06 01:06:32;;;;;;;0.90;0.90;;;;;;;14.09;88.93;95567.19;4993653;28;20200;-84
2021/10/06 01:09:00;;;;;;;1.13;0.90;;;;;;;14.04;89.61;95572.19;4993854;28;20246;-85
2021/10/06 01:11:29;;;;;;;1.40;0.97;;;;;;;14.06;88.81;95575.34;4993793;28;20207;-85
2021/10/06 01:13:57;;;;;;;1.77;0.90;;;;;;;14.10;89.54;95580.94;4995338;28;20204;-84
2021/10/06 01:16:24;;;;;;;2.40;1.03;;;;;;;14.11;88.14;95585.13;4994264;28;20291;-84
2021/10/06 01:18:51;;;;;;;1.53;0.80;;;;;;;13.95;86.88;95581.13;4994229;28;20235;-86
2021/10/06 01:21:20;;;;;;;1.40;0.87;;;;;;;14.01;87.49;95587.31;4993867;28;20231;-85
2021/10/06 01:23:48;;;;;;;1.23;1.00;;;;;;;14.01;86.80;95593.28;4984101;28;20231;-85
2021/10/06 01:26:18;;;;;;;1.17;0.90;;;;;;;13.98;86.54;95587.72;4980906;28;20204;-84
2021/10/06 01:28:45;;;;;;;1.07;0.90;;;;;;;14.07;86.68;95586.50;4974358;28;20224;-86
2021/10/06 01:31:11;;;;;;;1.30;0.73;;;;;;;14.09;86.09;95587.91;4974619;28;20246;-86
2021/10/06 01:33:38;;;;;;;1.37;0.90;;;;;;;14.06;86.23;95588.28;4974695;28;20211;-85
2021/10/06 01:36:05;;;;;;;1.23;0.93;;;;;;;14.08;85.79;95588.91;4973755;28;20668;-86
2021/10/06 01:38:33;;;;;;;0.87;0.80;;;;;;;14.05;86.06;95591.06;4974708;28;20617;-85
2021/10/06 01:41:00;;;;;;;2.80;0.80;;;;;;;14.04;85.98;95589.50;4974126;28;20205;-86
2021/10/06 01:43:26;;;;;;;1.70;1.03;;;;;;;13.99;85.54;95582.34;4975136;28;20227;-86
2021/10/06 01:45:53;;;;;;;2.53;0.90;;;;;;;14.02;85.73;95591.50;4978221;28;20712;-84
2021/10/06 01:48:21;;;;;;;0.80;0.80;;;;;;;14.03;84.66;95587.91;4978041;28;20227;-86
2021/10/06 01:50:48;;;;;;;1.57;0.90;;;;;;;14.08;85.09;95588.09;4979350;28;20231;-85
2021/10/06 01:53:16;;;;;;;0.93;0.77;;;;;;;14.07;84.80;95584.72;4997254;28;20206;-85
2021/10/06 01:55:44;;;;;;;0.80;0.80;;;;;;;14.09;85.36;95594.88;4998868;28;20204;-84
2021/10/06 01:58:14;;;;;;;1.03;0.90;;;;;;;14.07;86.18;95587.31;4998658;28;20232;-83
2021/10/06 02:00:42;;;;;;;1.07;0.87;;;;;;;14.09;84.97;95592.28;4994728;28;20207;-84
2021/10/06 02:03:09;;;;;;;3.40;0.80;;;;;;;14.12;84.99;95587.50;4994712;28;20200;-84
2021/10/06 02:05:35;;;;;;;3.93;0.90;;;;;;;14.15;85.36;95587.13;4994731;28;20222;-84
2021/10/06 02:08:02;;;;;;;0.83;0.83;;;;;;;14.16;84.83;95580.16;4994342;28;20226;-83
2021/10/06 02:10:29;;;;;;;0.90;0.90;;;;;;;14.12;84.91;95590.09;4994390;28;20211;-83
2021/10/06 02:12:57;;;;;;;0.90;0.90;;;;;;;14.13;85.18;95596.09;4994795;28;20195;-85
2021/10/06 02:15:24;;;;;;;0.70;0.70;;;;;;;14.11;85.13;95604.03;4994255;28;20211;-83
2021/10/06 02:17:51;;;;;;;2.00;0.83;;;;;;;14.08;84.62;95599.25;4994658;28;20262;-85
2021/10/06 02:20:18;;;;;;;0.83;0.80;;;;;;;14.04;84.90;95599.88;4994620;28;20203;-84
2021/10/06 02:22:45;;;;;;;1.00;0.70;;;;;;;13.88;85.12;95601.00;4994617;28;20579;-84
2021/10/06 02:25:11;;;;;;;2.20;0.90;;;;;;;13.95;85.62;95594.06;4994116;28;20260;-84
2021/10/06 02:27:38;;;;;;;2.60;0.90;;;;;;;13.94;85.23;95596.84;4994407;28;20579;-83
2021/10/06 02:30:08;;;;;;;1.17;0.90;;;;;;;13.88;85.12;95595.03;4994806;28;20760;-83
2021/10/06 02:32:35;;;;;;;2.40;0.80;;;;;;;13.90;85.21;95599.03;4995133;28;20211;-84
2021/10/06 02:35:01;;;;;;;1.73;0.80;;;;;;;13.95;85.17;95598.44;4995081;28;20219;-84
2021/10/06 02:37:28;;;;;;;0.90;0.90;;;;;;;13.97;85.06;95601.63;4993941;28;20203;-84
2021/10/06 02:39:54;;;;;;;1.00;0.90;;;;;;;13.95;85.62;95599.25;4994718;28;20208;-84
2021/10/06 02:42:21;;;;;;;7.20;0.90;;;;;;;13.96;85.43;95589.69;4994209;28;20199;-84
2021/10/06 02:44:47;;;;;;;2.13;0.90;;;;;;;13.90;85.21;95599.03;4994321;28;20255;-84
2021/10/06 02:47:15;;;;;;;0.90;0.77;;;;;;;13.79;84.62;95594.44;4993544;28;20235;-83
2021/10/06 02:49:42;;;;;;;1.40;0.97;;;;;;;13.76;85.24;95590.44;4994392;28;20224;-84
2021/10/06 02:52:08;;;;;;;1.77;0.80;;;;;;;13.65;84.89;95598.78;4994293;28;20207;-85
2021/10/06 02:54:34;;;;;;;1.27;0.80;;;;;;;13.65;84.63;95600.59;4994722;28;20196;-84
2021/10/06 02:57:04;;;;;;;0.83;0.73;;;;;;;13.59;84.05;95603.94;4993807;28;20210;-85
2021/10/06 02:59:30;;;;;;;1.03;0.80;;;;;;;13.61;84.25;95607.13;4994417;28;20683;-84
2021/10/06 03:01:57;;;;;;;0.60;0.60;;;;;;;13.63;83.84;95610.31;4994154;28;20204;-84
2021/10/06 03:04:25;;;;;;;1.00;0.90;;;;;;;13.52;83.99;95611.66;4994023;28;20223;-85
2021/10/06 03:06:52;;;;;;;2.27;0.90;;;;;;;13.47;83.69;95608.84;4993761;28;20210;-85
2021/10/06 03:09:21;;;;;;;1.13;0.70;;;;;;;13.45;83.91;95618.63;4993654;28;20219;-86
2021/10/06 03:11:48;;;;;;;1.40;0.90;;;;;;;13.49;84.00;95615.44;4994259;28;20200;-85
2021/10/06 03:14:14;;;;;;;1.70;1.20;;;;;;;13.41;83.79;95620.78;4982413;28;20203;-84
2021/10/06 03:16:41;;;;;;;1.07;0.90;;;;;;;13.43;83.70;95612.84;4974527;28;20266;-84
2021/10/06 03:19:07;;;;;;;1.63;0.90;;;;;;;13.51;83.88;95607.47;4973928;28;20224;-85
2021/10/06 03:21:35;;;;;;;2.30;0.90;;;;;;;13.56;84.21;95614.66;4974806;28;20214;-84
2021/10/06 03:24:01;;;;;;;0.87;0.87;;;;;;;13.51;83.31;95619.63;4974563;28;20219;-86
2021/10/06 03:26:28;;;;;;;1.03;0.80;;;;;;;13.41;83.21;95631.13;4974950;28;20220;-83
2021/10/06 03:28:54;;;;;;;2.23;0.90;;;;;;;13.32;83.88;95632.28;4974306;28;20247;-84
2021/10/06 03:31:21;;;;;;;1.50;0.93;;;;;;;13.31;83.87;95630.69;4974318;28;20200;-85
2021/10/06 03:33:47;;;;;;;1.90;0.90;;;;;;;13.36;83.98;95632.69;4974100;28;20204;-85
2021/10/06 03:36:14;;;;;;;2.40;1.20;;;;;;;13.31;84.55;95635.06;4974206;28;20208;-85
2021/10/06 03:38:42;;;;;;;1.87;0.90;;;;;;;13.35;83.95;95634.47;4974626;28;20228;-83
2021/10/06 03:41:08;;;;;;;1.93;1.00;;;;;;;13.21;84.15;95647.53;4973987;28;20686;-85
2021/10/06 03:43:35;;;;;;;2.07;0.90;;;;;;;13.18;84.67;95648.72;4973798;28;20207;-84
2021/10/06 03:46:01;;;;;;;1.70;1.00;;;;;;;13.16;84.75;95648.09;4976126;28;20227;-84
2021/10/06 03:48:28;;;;;;;1.77;0.90;;;;;;;13.25;84.34;95656.53;4993283;28;20737;-86
2021/10/06 03:50:54;;;;;;;2.53;0.90;;;;;;;13.26;84.54;95658.91;4993602;28;20213;-87
2021/10/06 03:53:21;;;;;;;1.87;0.97;;;;;;;13.25;84.41;95662.50;4993162;28;20694;-86
2021/10/06 03:55:49;;;;;;;1.23;0.90;;;;;;;13.11;84.23;95666.75;4993562;28;20689;-84
2021/10/06 03:58:17;;;;;;;1.43;0.90;;;;;;;13.13;84.59;95667.34;4988720;28;20234;-85
2021/10/06 04:00:44;;;;;;;1.77;1.00;;;;;;;13.05;84.94;95669.31;4973824;28;20218;-86
2021/10/06 04:03:11;;;;;;;2.57;1.17;;;;;;;13.10;85.13;95670.31;4973422;28;20204;-86
2021/10/06 04:05:38;;;;;;;1.40;1.07;;;;;;;13.10;84.99;95679.84;4974099;28;20572;-84
2021/10/06 04:08:05;;;;;;;3.20;0.90;;;;;;;13.18;84.68;95679.75;4977758;28;20228;-86
2021/10/06 04:10:31;;;;;;;1.63;1.00;;;;;;;13.21;84.24;95679.38;4993777;28;20263;-84
2021/10/06 04:12:59;;;;;;;2.13;1.23;;;;;;;13.11;84.84;95678.88;4993001;28;20219;-84
2021/10/06 04:15:26;;;;;;;1.03;0.80;;;;;;;13.17;84.58;95685.91;4993092;28;20204;-86
2021/10/06 04:17:52;;;;;;;2.27;0.80;;;;;;;13.05;85.23;95692.56;4993902;28;20215;-84
2021/10/06 04:20:19;;;;;;;1.00;0.80;;;;;;;13.15;85.17;95695.63;4994156;28;20211;-86
2021/10/06 04:22:47;;;;;;;2.70;1.10;;;;;;;13.26;85.21;95702.88;4994323;28;20204;-85
2021/10/06 04:25:14;;;;;;;3.77;1.17;;;;;;;13.24;84.66;95698.88;4981291;28;20224;-87
2021/10/06 04:27:42;;;;;;;1.57;0.90;;;;;;;13.26;84.64;95692.53;4993521;28;20203;-86
2021/10/06 04:30:11;;;;;;;1.70;1.00;;;;;;;13.29;84.90;95691.31;4994010;28;20325;-86
2021/10/06 04:32:39;;;;;;;2.50;0.97;;;;;;;13.27;84.93;95701.09;4993685;28;20204;-86
2021/10/06 04:35:06;;;;;;;3.13;1.07;;;;;;;13.33;84.44;95698.53;4993920;28;20641;-85
2021/10/06 04:37:33;;;;;;;0.97;0.90;;;;;;;13.31;84.40;95699.69;4993879;28;20203;-86
2021/10/06 04:40:02;;;;;;;2.10;1.20;;;;;;;13.36;84.08;95705.09;4993692;28;20214;-85
2021/10/06 04:42:28;;;;;;;1.63;1.00;;;;;;;13.32;83.71;95704.69;4993104;28;20210;-85
2021/10/06 04:44:55;;;;;;;1.97;1.00;;;;;;;13.32;83.60;95709.84;4992975;28;20264;-85
2021/10/06 04:47:23;;;;;;;2.47;0.90;;;;;;;13.32;84.28;95715.03;4992473;28;20238;-85
2021/10/06 04:49:49;;;;;;;2.43;1.00;;;;;;;13.29;83.84;95714.59;4988574;28;20332;-86
2021/10/06 04:52:16;;;;;;;1.83;1.07;;;;;;;13.34;83.76;95720.81;4989908;28;20574;-86
2021/10/06 04:54:42;;;;;;;1.93;1.00;;;;;;;13.38;83.95;95709.09;4984919;28;20267;-85
2021/10/06 04:57:09;;;;;;;3.33;1.60;;;;;;;13.41;84.08;95716.50;4981245;28;20196;-86
2021/10/06 04:59:35;;;;;;;3.40;1.50;;;;;;;13.46;84.37;95715.91;4989695;28;20239;-86
2021/10/06 05:02:02;;;;;;;1.30;1.20;;;;;;;13.47;84.08;95720.88;4993232;28;20678;-85
2021/10/06 05:04:30;;;;;;;3.03;1.30;;;;;;;13.48;83.44;95724.25;4993414;28;20572;-86
2021/10/06 05:06:59;;;;;;;4.77;1.10;;;;;;;13.48;82.96;95726.84;4992946;28;20203;-84
2021/10/06 05:09:25;;;;;;;1.70;1.10;;;;;;;13.43;83.49;95727.44;4993141;28;20219;-86
2021/10/06 05:11:54;;;;;;;3.70;1.80;;;;;;;13.42;82.96;95732.81;4993302;28;20612;-86
2021/10/06 05:14:20;;;;;;;2.73;1.53;;;;;;;13.36;84.00;95736.94;4993047;28;20207;-85
2021/10/06 05:16:52;;;;;;;2.33;1.30;;;;;;;13.35;83.01;95740.50;4992417;28;20582;-85
2021/10/06 05:19:21;;;;;;;3.83;1.60;;;;;;;13.37;83.00;95745.50;4990614;28;20223;-85
2021/10/06 05:21:49;;;;;;;8.23;3.40;;;;;;;13.33;82.55;95747.66;4995911;28;20290;-84
2021/10/06 05:24:16;;;;;;;5.50;1.70;;;;;;;13.27;83.04;95745.84;4995418;28;20203;-86
2021/10/06 05:26:42;;;;;;;4.30;1.40;;;;;;;13.31;82.88;95749.63;4994393;28;20199;-86
2021/10/06 05:29:09;;;;;;;2.87;1.37;;;;;;;13.27;81.93;95757.97;4989897;28;20319;-85
2021/10/06 05:31:37;;;;;;;3.00;1.30;;;;;;;13.20;82.53;95755.34;4996659;28;20218;-85
2021/10/06 05:34:03;;;;;;;5.00;1.40;;;;;;;13.26;82.62;95769.31;4995571;28;20215;-86
2021/10/06 05:36:30;;;;;;;2.90;1.40;;;;;;;13.12;82.47;95779.50;4995120;28;20203;-86
2021/10/06 05:38:58;;;;;;;3.90;1.20;;;;;;;13.20;82.44;95770.84;4994736;28;20247;-84
2021/10/06 05:41:24;;;;;;;2.97;1.20;;;;;;;13.17;82.30;95773.00;4994247;28;20199;-85
2021/10/06 05:43:57;;;;;;;3.00;1.27;;;;;;;13.11;82.69;95777.09;4994737;28;20203;-85
2021/10/06 05:46:26;;;;;;;3.67;2.03;;;;;;;13.13;82.15;95775.13;4994821;28;20231;-86
2021/10/06 05:48:52;;;;;;;2.60;1.13;;;;;;;13.11;81.82;95780.47;4995863;28;20768;-86
2021/10/06 05:51:26;;;;;;;2.10;1.23;;;;;;;13.14;81.98;95781.91;4995338;28;20873;-86
2021/10/06 05:53:54;;;;;;;4.47;1.10;;;;;;;13.08;81.93;95783.44;4995776;28;20196;-86
2021/10/06 05:56:22;;;;;;;1.30;0.90;;;;;;;13.05;81.82;95785.63;4994886;28;20197;-86
2021/10/06 05:58:49;;;;;;;1.80;0.83;;;;;;;13.05;80.90;95789.00;4995257;28;20242;-86
2021/10/06 06:01:15;;;;;;;2.33;1.03;;;;;;;13.09;82.16;95795.38;4994744;28;20203;-85
2021/10/06 06:03:42;;;;;;;1.50;0.90;;;;;;;12.96;80.86;95792.69;4995293;28;20215;-84
2021/10/06 06:06:11;;;;;;;2.73;0.80;;;;;;;13.03;80.89;95797.94;4991716;28;20239;-86
2021/10/06 06:08:37;;;;;;;1.67;0.90;;;;;;;13.08;81.14;95798.94;4980131;28;20219;-85
2021/10/06 06:11:04;;;;;;;1.90;0.80;;;;;;;13.11;80.46;95796.00;4995284;28;20602;-86
2021/10/06 06:13:31;;;;;;;0.93;0.83;;;;;;;13.14;80.34;95800.81;4993257;28;20667;-86
2021/10/06 06:15:58;;;;;;;1.07;0.90;;;;;;;13.10;79.76;95801.34;4991153;28;20282;-86
2021/10/06 06:18:25;;;;;;;1.37;0.70;;;;;;;13.08;79.70;95808.53;4985979;28;20225;-86
2021/10/06 06:20:51;;;;;;;2.57;0.87;;;;;;;13.11;79.60;95810.72;4994522;28;20207;-86
2021/10/06 06:23:20;;;;;;;1.07;0.70;;;;;;;13.11;79.11;95813.28;4995116;28;20258;-85
2021/10/06 06:25:47;;;;;;;1.53;0.90;;;;;;;13.12;79.12;95817.47;4993747;28;20242;-84
2021/10/06 06:28:14;;;;;;;3.43;0.73;;;;;;;13.12;80.00;95812.31;4994599;28;20223;-84
2021/10/06 06:30:43;;;;;;;2.50;0.97;;;;;;;13.09;78.64;95820.44;4995535;28;20203;-86
2021/10/06 06:33:13;;;;;;;2.40;0.90;;;;;;;13.12;78.79;95831.22;5014181;28;20198;-85
2021/10/06 06:35:40;;;;;;;1.37;1.27;;;;;;;13.10;78.07;95833.16;5013393;28;20305;-86
2021/10/06 06:38:09;;;;;;;2.87;2.00;;;;;;;13.16;78.29;95830.88;5014628;28;20222;-86
2021/10/06 06:40:40;;;;;;;1.63;1.30;;;;;;;13.08;77.99;95837.72;5013536;28;20226;-85
2021/10/06 06:43:07;;;;;;;0.80;0.67;;;;;;;13.11;77.60;95844.31;5013184;28;20733;-85
2021/10/06 06:45:35;;;;;;;1.33;0.80;;;;;;;13.07;78.12;95841.31;5012742;28;20219;-86
2021/10/06 06:48:03;;;;;;;1.10;0.80;;;;;;;13.13;78.11;95847.53;4997644;28;20942;-84
2021/10/06 06:50:30;;;;;;;1.53;1.00;;;;;;;13.04;77.93;95844.28;4993235;28;20259;-87
2021/10/06 06:53:02;;;;;;;1.83;1.13;;;;;;;12.97;78.35;95847.78;4993187;28;20199;-85
2021/10/06 06:55:31;;;;;;;1.90;1.10;;;;;;;12.94;78.60;95861.84;4973830;28;20215;-85
2021/10/06 06:57:58;;;;;;;1.73;0.80;;;;;;;12.97;77.78;95856.31;4981495;28;20211;-85
2021/10/06 07:00:40;;;;;;;0.90;0.80;;;;;;;13.02;78.45;95864.34;4994388;28;20231;-87
2021/10/06 07:03:08;;;;;;;2.00;0.73;;;;;;;13.02;78.12;95859.16;4994511;28;20227;-80
2021/10/06 07:05:34;;;;;;;1.83;0.80;;;;;;;13.03;77.77;95858.19;4993245;28;20396;-85
2021/10/06 07:08:02;;;;;;;0.83;0.80;;;;;;;13.04;78.08;95862.38;4993508;28;20225;-84
2021/10/06 07:10:33;;;;;;;3.97;1.00;;;;;;;13.10;78.51;95860.81;4994423;28;20242;-85
2021/10/06 07:13:01;;;;;;;3.37;2.83;;;;;;;13.02;77.91;95863.53;4994157;28;20207;-86
2021/10/06 07:15:28;;;;;;;2.50;1.10;;;;;;;13.01;77.98;95867.91;4992998;28;20204;-86
2021/10/06 07:17:59;;;;;;;1.00;0.90;;;;;;;13.02;78.17;95869.50;4994054;28;20223;-86
2021/10/06 07:20:28;;;;;;;1.67;1.00;;;;;;;12.96;77.82;95872.81;4994122;28;20271;-85
2021/10/06 07:22:55;;;;;;;4.07;1.00;;;;;;;12.99;78.71;95876.81;4993878;28;20200;-86
2021/10/06 07:25:22;;;;;;;2.70;1.00;;;;;;;12.99;78.55;95879.41;4993326;28;20219;-84
2021/10/06 07:27:49;;;;;;;2.40;0.90;;;;;;;13.05;78.83;95876.09;4987960;28;20794;-86
2021/10/06 07:30:15;;;;;;;1.20;0.93;;;;;;;13.00;77.99;95883.59;4985024;28;20207;-85
2021/10/06 07:32:42;;;;;;;4.40;1.10;;;;;;;13.05;77.80;95882.06;4993473;28;20577;-85
2021/10/06 07:35:11;;;;;;;1.17;0.90;;;;;;;13.11;77.72;95889.06;4992818;28;20679;-86
2021/10/06 07:37:39;;;;;;;1.83;0.90;;;;;;;13.07;77.72;95887.06;4992863;28;20261;-85
2021/10/06 07:40:07;;;;;;;1.30;0.90;;;;;;;13.02;77.71;95886.78;4993867;28;20367;-86
2021/10/06 07:42:36;;;;;;;2.30;1.00;;;;;;;13.04;77.56;95887.41;4993027;28;20207;-85
2021/10/06 07:45:03;;;;;;;1.60;1.00;;;;;;;13.21;77.65;95888.81;4992872;28;20213;-85
2021/10/06 07:47:32;;;;;;;1.93;0.87;;;;;;;13.37;77.07;95890.31;4993302;28;20613;-84
2021/10/06 07:49:59;;;;;;;1.00;0.90;;;;;;;13.45;77.73;95888.44;4992851;28;20227;-85
2021/10/06 07:52:26;;;;;;;1.67;1.10;;;;;;;13.55;75.99;95887.28;4993289;28;20234;-85
2021/10/06 07:54:54;;;;;;;2.13;1.10;;;;;;;13.58;76.02;95890.31;4991871;28;20214;-85
2021/10/06 07:57:23;;;;;;;1.67;0.90;;;;;;;13.64;76.35;95892.16;4986986;28;20282;-86
2021/10/06 07:59:50;;;;;;;1.73;0.90;;;;;;;13.68;75.77;95892.56;4991035;28;20289;-85
2021/10/06 08:02:16;;;;;;;3.23;1.23;;;;;;;13.69;75.54;95888.97;4988584;28;20215;-86
2021/10/06 08:04:45;;;;;;;0.93;0.90;;;;;;;13.53;75.04;95884.88;4991658;28;20215;-85
2021/10/06 08:07:13;;;;;;;1.30;0.80;;;;;;;13.66;75.18;95879.03;4991950;28;20301;-86
2021/10/06 08:09:41;;;;;;;1.97;1.20;;;;;;;13.70;75.95;95888.78;4992210;28;20215;-84
2021/10/06 08:12:11;;;;;;;1.53;1.00;;;;;;;13.72;74.76;95886.03;4992326;28;20207;-86
2021/10/06 08:14:38;;;;;;;3.10;1.10;;;;;;;13.79;74.54;95886.88;4992027;28;20210;-84
2021/10/06 08:17:05;;;;;;;1.03;0.80;;;;;;;14.01;74.51;95887.63;4991644;28;20200;-86
2021/10/06 08:19:32;;;;;;;1.77;1.10;;;;;;;14.21;73.48;95901.50;5006355;23;20705;-81
2021/10/06 08:21:58;;;;;;;2.53;1.20;;;;;;;14.04;72.28;95895.03;4991012;28;20215;-80
2021/10/06 08:24:25;;;;;;;2.43;1.00;;;;;;;13.96;72.08;95905.50;4991129;28;20223;-79
2021/10/06 08:26:52;;;;;;;2.73;1.00;;;;;;;13.96;72.09;95898.53;4990743;28;20231;-80
2021/10/06 08:29:20;;;;;;;1.47;1.00;;;;;;;13.99;72.38;95892.19;4991223;28;20235;-79
2021/10/06 08:31:46;;;;;;;1.63;1.07;;;;;;;14.17;73.34;95903.66;4992024;28;20207;-80
2021/10/06 08:34:13;;;;;;;1.17;1.00;;;;;;;14.23;71.37;95901.31;4996297;28;20195;-79
2021/10/06 08:36:39;;;;;;;1.83;1.17;;;;;;;14.23;69.84;95902.09;4995377;28;20196;-81
2021/10/06 08:39:08;;;;;;;2.10;1.10;;;;;;;14.18;70.06;95902.66;4991563;28;20224;-80
2021/10/06 08:41:36;;;;;;;2.57;1.00;;;;;;;14.28;69.54;95906.69;4994604;28;20198;-81
2021/10/06 08:44:02;;;;;;;2.20;1.57;;;;;;;14.43;70.07;95904.81;4995847;28;20684;-80
2021/10/06 08:46:30;;;;;;;3.00;1.10;;;;;;;14.57;69.35;95911.66;4994679;28;20296;-80
2021/10/06 08:48:58;;;;;;;2.47;1.07;;;;;;;14.73;69.17;95915.69;5007171;28;20198;-79
2021/10/06 08:51:25;;;;;;;1.57;1.10;;;;;;;14.90;67.79;95923.94;4991756;28;20574;-79
2021/10/06 08:53:52;;;;;;;1.63;1.00;;;;;;;14.95;67.71;95913.78;4996172;28;20195;-80
2021/10/06 08:56:21;;;;;;;2.70;1.07;;;;;;;15.04;67.10;95915.19;5014131;28;20215;-80
2021/10/06 08:58:47;;;;;;;1.80;0.90;;;;;;;14.88;66.50;95921.53;5015154;28;20207;-79
2021/10/06 09:01:21;;;;;;;1.63;0.90;;;;;;;14.89;65.97;95925.72;5014598;28;20213;-81
2021/10/06 09:03:54;;;;;;;2.97;2.40;;;;;;;15.13;66.49;95922.59;4999645;28;20709;-79
2021/10/06 09:06:20;;;;;;;2.20;1.00;;;;;;;15.34;65.96;95928.63;4993904;28;20223;-80
2021/10/06 09:08:48;;;;;;;2.53;1.30;;;;;;;15.40;66.02;95927.81;5002568;28;20696;-80
2021/10/06 09:11:17;;;;;;;2.20;1.10;;;;;;;15.37;64.66;95938.63;5014722;28;20577;-78
2021/10/06 09:13:43;;;;;;;1.60;0.90;;;;;;;15.24;64.14;95939.38;5015033;28;20560;-80
2021/10/06 09:16:11;;;;;;;1.57;0.80;;;;;;;15.25;63.41;95930.59;4997168;28;20197;-80
2021/10/06 09:18:37;;;;;;;2.30;0.98;;;;;;;15.52;63.48;95939.22;4989683;28;20291;-80
2021/10/06 09:21:10;;;;;;;2.37;1.00;;;;;;;15.55;63.03;95938.84;5011523;28;20212;-80
2021/10/06 09:23:38;;;;;;;1.33;0.90;;;;;;;15.49;62.76;95932.63;5014026;28;20223;-81
2021/10/06 09:26:07;;;;;;;2.83;1.00;;;;;;;15.35;63.65;95940.63;5011982;28;21003;-80
2021/10/06 09:28:35;;;;;;;2.40;1.10;;;;;;;15.18;64.62;95948.75;4983287;28;20200;-79
2021/10/06 09:31:06;;;;;;;2.15;0.98;;;;;;;15.14;63.89;95941.56;4994516;28;20216;-79
2021/10/06 09:33:44;;;;;;;3.13;0.98;;;;;;;15.19;64.37;95946.97;4994344;28;20207;-80
2021/10/06 09:36:30;;;;;;;3.42;1.10;;;;;;;15.23;63.80;95948.16;5013566;28;20203;-80
2021/10/06 09:38:58;;;;;;;3.20;1.00;;;;;;;15.23;64.55;95939.56;5013618;28;20217;-80
2021/10/06 09:41:31;;;;;;;2.15;0.90;;;;;;;15.14;64.07;95942.38;5014445;28;20203;-80
2021/10/06 09:44:01;;;;;;;0.82;0.73;;;;;;;14.92;64.49;95940.09;5014232;28;20210;-80
2021/10/06 09:46:34;;;;;;;1.13;0.75;;;;;;;14.82;65.51;95949.03;5008777;28;20216;-81
2021/10/06 09:49:00;;;;;;;2.10;1.13;;;;;;;14.72;65.63;95963.34;4995440;28;20219;-81
2021/10/06 09:51:28;;;;;;;1.27;0.90;;;;;;;14.60;66.62;95955.34;4995565;28;20263;-80
2021/10/06 09:53:55;;;;;;;1.30;0.90;;;;;;;14.82;66.21;95951.63;5001819;28;20201;-79
2021/10/06 09:56:22;;;;;;;1.90;1.00;;;;;;;14.92;65.38;95956.44;5014202;28;20199;-80
2021/10/06 09:59:00;;;;;;;1.10;0.90;;;;;;;14.69;64.65;95956.75;5001251;28;20207;-79
2021/10/06 10:01:36;;;;;;;1.87;0.90;;;;;;;14.84;65.39;95954.00;4997658;28;20344;-81
2021/10/06 10:04:05;;;;;;;1.73;1.33;;;;;;;14.90;65.07;95962.81;4998366;28;20226;-80
2021/10/06 10:06:33;;;;;;;1.40;0.97;;;;;;;14.93;65.75;95965.03;4992818;28;20265;-81
2021/10/06 10:09:02;;;;;;;2.10;1.13;;;;;;;14.93;66.85;95967.63;5012497;28;20238;-80
2021/10/06 10:11:28;;;;;;;1.27;1.07;;;;;;;14.76;64.87;95964.56;5012506;28;20608;-79
2021/10/06 10:13:55;;;;;;;1.20;0.80;;;;;;;14.56;65.17;95961.09;5007785;28;20812;-79
2021/10/06 10:16:22;;;;;;;0.70;0.70;;;;;;;14.57;65.60;95960.88;5012556;28;20555;-80
2021/10/06 10:18:49;;;;;;;1.73;0.83;;;;;;;14.66;65.50;95964.91;5012957;28;20310;-80
2021/10/06 10:21:16;;;;;;;2.97;2.37;;;;;;;14.93;65.74;95958.06;5013129;28;20214;-80
2021/10/06 10:23:44;;;;;;;2.40;0.90;;;;;;;14.97;64.16;95958.47;4997969;28;20211;-79
2021/10/06 10:26:22;;;;;;;1.53;0.90;;;;;;;14.98;64.01;95960.88;4992831;28;20227;-80
2021/10/06 10:28:49;;;;;;;1.30;0.97;;;;;;;15.11;64.26;95968.69;4982800;28;20203;-80
2021/10/06 10:31:18;;;;;;;1.27;1.00;;;;;;;15.22;63.71;95969.91;4992719;28;20203;-80
2021/10/06 10:33:49;;;;;;;1.50;0.90;;;;;;;15.25;63.08;95971.31;5007531;28;20199;-80
2021/10/06 10:36:48;;;;;;;1.20;1.00;;;;;;;15.21;63.26;95963.13;5005355;28;20204;-81
2021/10/06 10:39:51;;;;;;;2.03;1.03;;;;;;;15.15;64.59;95967.31;4993884;28;20231;-79
2021/10/06 10:42:18;;;;;;;1.80;1.10;;;;;;;15.15;62.85;95961.31;4993553;28;20203;-81
2021/10/06 10:44:46;;;;;;;2.00;0.90;;;;;;;15.30;61.85;95959.34;4992368;28;20210;-79
2021/10/06 10:47:13;;;;;;;1.30;0.70;;;;;;;15.46;59.64;95953.00;4992727;28;20251;-80
2021/10/06 10:49:45;;;;;;;1.90;0.80;;;;;;;15.66;59.96;95960.84;4992663;28;20227;-79
2021/10/06 10:52:11;;;;;;;4.10;1.25;;;;;;;15.84;61.20;95954.06;4993182;28;20200;-79
2021/10/06 10:54:40;;;;;;;1.25;0.90;;;;;;;15.79;59.38;95956.44;4992115;28;20218;-79
2021/10/06 10:57:17;;;;;;;11.02;8.40;;;;;;;15.67;58.56;95949.44;4992381;28;20230;-79
2021/10/06 10:59:46;;;;;;;6.25;4.47;;;;;;;15.71;58.29;95948.88;4992858;28;20219;-81
2021/10/06 11:02:17;;;;;;;1.38;1.10;;;;;;;15.71;59.03;95954.06;4992865;28;20200;-80
2021/10/06 11:04:46;;;;;;;2.53;0.90;;;;;;;15.78;59.51;95946.25;4997091;28;20206;-80
2021/10/06 11:07:14;;;;;;;2.78;1.08;;;;;;;15.81;57.88;95953.66;4990985;28;20636;-80
2021/10/06 11:09:46;;;;;;;1.45;0.70;;;;;;;15.76;56.99;95949.06;5005122;28;20234;-80
2021/10/06 11:12:53;;;;;;;1.05;0.95;;;;;;;15.73;58.34;95933.09;5005466;28;20198;-79
2021/10/06 11:15:25;;;;;;;1.08;0.80;;;;;;;15.54;58.18;95938.03;4973179;28;20212;-80
2021/10/06 11:18:25;;;;;;;1.48;1.00;;;;;;;15.47;57.91;95933.84;4991021;28;20346;-79
2021/10/06 11:20:59;;;;;;;2.17;1.23;;;;;;;15.49;57.80;95937.03;4896338;29;20271;-80
2021/10/06 11:23:57;;;;;;;1.45;0.90;;;;;;;15.45;58.27;95944.41;4991865;28;20554;-80
2021/10/06 11:26:33;;;;;;;0.93;0.70;;;;;;;15.45;58.78;95944.41;4977905;28;20218;-81
2021/10/06 11:29:04;;;;;;;1.37;0.80;;;;;;;15.40;58.03;95943.38;4997132;28;20338;-80
2021/10/06 11:31:32;;;;;;;1.55;0.90;;;;;;;15.47;59.80;95944.22;4992670;28;20820;-81
2021/10/06 11:34:00;;;;;;;1.80;0.73;;;;;;;15.33;60.69;95940.81;4991964;28;20226;-81
2021/10/06 11:36:29;;;;;;;1.70;0.97;;;;;;;15.31;60.35;95937.59;4990924;28;20203;-78
2021/10/06 11:39:02;;;;;;;4.30;3.13;;;;;;;15.40;59.80;95936.41;4991379;28;20195;-79